Idabel, OK

5:13 PM CDT on April 19, 2015 (GMT -0500)
Stone Haven | | Change Station
CLOSE
Current Station
Personal Weather Station
Location: Idabel, OK
Elevation: 489 ft
Nearby Weather Stations

Elev 489 ft 33.87 °N, 94.83 °W | Updated 12 seconds ago

Partly Cloudy
Partly Cloudy
76.2 °F
Feels Like 78 °F
N
2.0
Wind Variable Wind from SW
Gusts 5.0 mph

Today
High -- | Low -- °F
--% Chance of Precip.
Yesterday
High -- | Low -- °F
Precip. -- in
6:43 AM 7:53 PM
New Moon, 2% visible
Pressure 29.65 in
Visibility 10.0 miles
Clouds Scattered Clouds 4000 ft
Scattered Clouds 4600 ft
Heat Index 78 °F
Dew Point 61 °F
Humidity 60%
Rainfall 0.11 in
Snow Depth Not available.
UV 3 out of 12
Pollen 9.60 out of 12
Air Quality Not available.
Flu Activity Regional
METAR K4O4 192155Z AUTO 28012KT 10SM SCT040 SCT046 24/14 A2965 RMK AO2

More Conditions Fewer Conditions

Pressure 29.65 in
Visibility 10.0 miles
Clouds Scattered Clouds 4000 ft
Scattered Clouds 4600 ft
Heat Index 78 °F
Dew Point 61 °F
Humidity 60%
Rainfall 0.11 in
Snow Depth Not available.
UV 3 out of 12
Pollen 9.60 out of 12
Air Quality Not available.
Flu Activity Regional
METAR K4O4 192155Z AUTO 28012KT 10SM SCT040 SCT046 24/14 A2965 RMK AO2

More Conditions Fewer Conditions

10-Day Weather Forecast

Almanac

Astronomy

Apr. 19, 2015 Rise Set
Actual Time
Civil Twilight
Nautical Twilight
Astronomical Twilight
Moon
Length of Visible Light
Length of Day
Tomorrow will be .
, % of the Moon is Illuminated

Today's Extremes

State Highs State Lows

Community

WunderPhotos

Upload Photos

1,815,003 photos uploaded!

WunderBlogs® & News

Nearby

Air Quality

  Air Quality AQ Index Pollutant
Not available.

Snow Depth

Station Depth Elevation

Earthquake Activity

City Distance Mag. Time & Date
Minimum magnitude displayed is 2.5.

Coastal Water Temperatures

Place Temperature

Stations

Nearby Weather Stations

Station Location Temp. Windchill Dew Point Humidity Wind Precip. Elev Updated Type